createdAt,value
2017-09-13T00:01:01.837Z,13.60
2017-09-13T00:03:04.474Z,13.60
2017-09-13T00:05:07.370Z,13.60
2017-09-13T00:07:10.038Z,13.60
2017-09-13T00:09:12.765Z,13.60
2017-09-13T00:11:16.389Z,13.70
2017-09-13T00:13:19.069Z,13.60
2017-09-13T00:15:21.731Z,13.60
2017-09-13T00:17:24.378Z,13.60
2017-09-13T00:19:27.167Z,13.60
2017-09-13T00:21:30.613Z,13.60
2017-09-13T00:23:33.319Z,13.60
2017-09-13T00:25:36.002Z,13.70
2017-09-13T00:27:38.633Z,13.60
2017-09-13T00:29:41.356Z,13.60
2017-09-13T00:31:44.789Z,13.70
2017-09-13T00:33:47.449Z,13.70
2017-09-13T00:35:51.000Z,13.80
2017-09-13T00:37:53.677Z,13.80
2017-09-13T00:39:56.357Z,13.80
2017-09-13T00:41:59.014Z,13.80
2017-09-13T00:44:01.961Z,13.90
2017-09-13T00:46:04.744Z,13.90
2017-09-13T00:48:07.455Z,13.90
2017-09-13T00:50:10.289Z,14.00
2017-09-13T00:52:13.760Z,14.00
2017-09-13T00:54:16.490Z,14.00
2017-09-13T00:56:19.211Z,14.00
2017-09-13T00:58:21.866Z,14.00
2017-09-13T01:00:24.572Z,14.10
2017-09-13T01:02:28.110Z,14.10
2017-09-13T01:04:30.894Z,14.10
2017-09-13T01:06:33.596Z,14.00
2017-09-13T01:08:36.304Z,14.00
2017-09-13T01:10:38.963Z,14.10
2017-09-13T01:12:41.635Z,14.10
2017-09-13T01:14:44.305Z,14.20
2017-09-13T01:16:47.000Z,14.10
2017-09-13T01:18:49.802Z,14.10
2017-09-13T01:20:53.233Z,14.20
2017-09-13T01:22:56.104Z,14.20
2017-09-13T01:24:58.767Z,14.20
2017-09-13T01:27:01.500Z,14.20
2017-09-13T01:29:04.356Z,14.30
2017-09-13T01:31:07.036Z,14.30
2017-09-13T01:33:09.722Z,14.30
2017-09-13T01:35:12.449Z,14.20
2017-09-13T01:37:15.241Z,14.20
2017-09-13T01:39:18.072Z,14.30
2017-09-13T01:41:20.735Z,14.20
2017-09-13T01:43:23.500Z,14.10
2017-09-13T01:45:26.175Z,13.90
2017-09-13T01:47:28.840Z,13.80
2017-09-13T01:49:31.773Z,13.60
2017-09-13T01:51:34.451Z,13.50
2017-09-13T01:53:37.874Z,13.30
2017-09-13T01:55:40.522Z,13.30
2017-09-13T01:57:44.051Z,13.10
2017-09-13T01:59:46.777Z,13.10
2017-09-13T02:01:49.439Z,13.10
2017-09-13T02:03:52.129Z,13.00
2017-09-13T02:05:54.791Z,12.90
2017-09-13T02:07:57.580Z,12.90
2017-09-13T02:10:00.260Z,12.70
2017-09-13T02:12:02.936Z,12.60
2017-09-13T02:14:05.593Z,12.60
2017-09-13T02:16:08.501Z,12.70
2017-09-13T02:18:11.187Z,12.60
2017-09-13T02:20:14.643Z,12.60
2017-09-13T02:22:17.352Z,12.50
2017-09-13T02:24:20.003Z,12.60
2017-09-13T02:26:22.746Z,12.60
2017-09-13T02:28:26.566Z,12.60
2017-09-13T02:30:29.398Z,12.50
2017-09-13T02:32:32.802Z,12.40
2017-09-13T02:34:36.243Z,12.40
2017-09-13T02:36:38.879Z,12.40
2017-09-13T02:38:41.526Z,12.40
2017-09-13T02:40:45.138Z,12.40
2017-09-13T02:42:48.571Z,12.40
2017-09-13T02:44:51.442Z,12.40
2017-09-13T02:46:54.138Z,12.40
2017-09-13T02:48:56.800Z,12.30
2017-09-13T02:50:59.615Z,12.30
2017-09-13T02:53:02.352Z,12.30
2017-09-13T02:55:05.014Z,12.30
2017-09-13T02:57:08.012Z,12.30
2017-09-13T02:59:10.715Z,12.20
2017-09-13T03:01:13.511Z,12.20
2017-09-13T03:03:16.248Z,12.20
2017-09-13T03:05:18.938Z,12.20
2017-09-13T03:07:21.801Z,12.30
2017-09-13T03:09:24.454Z,12.30
2017-09-13T03:11:28.071Z,12.20
2017-09-13T03:13:30.822Z,12.20
2017-09-13T03:15:34.239Z,12.20
2017-09-13T03:17:36.945Z,12.20
2017-09-13T03:19:40.710Z,12.20
2017-09-13T03:21:43.539Z,12.30
2017-09-13T03:23:46.314Z,12.20
2017-09-13T03:25:48.960Z,12.20
2017-09-13T03:27:51.755Z,12.30
2017-09-13T03:29:54.937Z,12.30
2017-09-13T03:31:57.731Z,12.30
2017-09-13T03:34:00.625Z,12.30
2017-09-13T03:36:03.319Z,12.30
2017-09-13T03:38:06.242Z,12.30
2017-09-13T03:40:08.903Z,12.30
2017-09-13T03:42:11.599Z,12.30
2017-09-13T03:44:14.333Z,12.40
2017-09-13T03:46:16.981Z,12.40
2017-09-13T03:48:19.764Z,12.40
2017-09-13T03:50:23.231Z,12.50
2017-09-13T03:52:26.104Z,12.50
2017-09-13T03:54:28.852Z,12.50
2017-09-13T03:56:32.297Z,12.50
2017-09-13T03:58:35.058Z,12.50
2017-09-13T04:00:37.748Z,12.60
2017-09-13T04:02:40.485Z,12.50
2017-09-13T04:04:43.991Z,12.60
2017-09-13T04:06:46.684Z,12.50
2017-09-13T04:08:49.344Z,12.60
2017-09-13T04:10:52.032Z,12.50
2017-09-13T04:12:54.811Z,12.50
2017-09-13T04:14:57.509Z,12.60
2017-09-13T04:17:00.183Z,12.60
2017-09-13T04:19:02.868Z,12.60
2017-09-13T04:21:05.540Z,12.60
2017-09-13T04:23:08.377Z,12.60
2017-09-13T04:25:11.152Z,12.60
2017-09-13T04:27:14.680Z,12.60
2017-09-13T04:29:17.384Z,12.60
2017-09-13T04:31:20.258Z,12.60
2017-09-13T04:33:22.917Z,12.70
2017-09-13T04:35:25.720Z,12.70
2017-09-13T04:37:28.497Z,12.80
2017-09-13T04:39:31.239Z,12.70
2017-09-13T04:41:34.012Z,12.80
2017-09-13T04:43:36.671Z,12.80
2017-09-13T04:45:40.081Z,12.80
2017-09-13T04:47:42.839Z,12.80
2017-09-13T04:49:46.240Z,13.00
2017-09-13T04:51:48.921Z,13.00
2017-09-13T04:53:51.590Z,13.10
2017-09-13T04:55:54.353Z,13.00
2017-09-13T04:57:57.814Z,13.00
2017-09-13T05:00:00.484Z,13.00
2017-09-13T05:02:03.347Z,13.10
2017-09-13T05:04:06.325Z,13.10
2017-09-13T05:06:09.208Z,13.10
2017-09-13T05:08:11.908Z,13.10
2017-09-13T05:10:14.574Z,13.10
2017-09-13T05:12:17.286Z,13.20
2017-09-13T05:14:19.964Z,13.20
2017-09-13T05:16:22.665Z,13.20
2017-09-13T05:18:26.184Z,13.30
2017-09-13T05:20:28.841Z,13.30
2017-09-13T05:22:31.737Z,13.30
2017-09-13T05:24:34.399Z,13.20
2017-09-13T05:26:37.218Z,13.20
2017-09-13T05:28:40.075Z,13.20
2017-09-13T05:30:42.785Z,13.30
2017-09-13T05:32:45.439Z,13.30
2017-09-13T05:34:48.179Z,13.40
2017-09-13T05:36:51.706Z,13.40
2017-09-13T05:38:54.515Z,13.40
2017-09-13T05:40:57.175Z,13.40
2017-09-13T05:42:59.829Z,13.40
2017-09-13T05:45:02.525Z,13.50
2017-09-13T05:47:05.176Z,13.50
2017-09-13T05:49:07.998Z,13.60
2017-09-13T05:51:10.704Z,13.70
2017-09-13T05:53:14.106Z,13.80
2017-09-13T05:55:17.675Z,13.90
2017-09-13T05:57:20.344Z,13.90
2017-09-13T05:59:22.991Z,14.00
2017-09-13T06:01:25.643Z,14.10
2017-09-13T06:03:28.335Z,14.20
2017-09-13T06:05:31.065Z,14.30
2017-09-13T06:07:33.713Z,14.50
2017-09-13T06:09:36.393Z,14.90
2017-09-13T06:11:39.164Z,15.00
2017-09-13T06:13:41.815Z,15.20
2017-09-13T06:15:44.680Z,15.10
2017-09-13T06:17:48.094Z,15.00
2017-09-13T06:19:50.751Z,15.00
2017-09-13T06:21:53.465Z,14.90
2017-09-13T06:23:56.118Z,14.80
2017-09-13T06:25:58.818Z,14.80
2017-09-13T06:28:01.630Z,15.10
2017-09-13T06:30:04.291Z,15.00
2017-09-13T06:32:06.999Z,14.90
2017-09-13T06:34:10.628Z,15.40
2017-09-13T06:36:13.405Z,15.40
2017-09-13T06:38:16.199Z,16.00
2017-09-13T06:40:18.860Z,16.60
2017-09-13T06:42:21.576Z,17.10
2017-09-13T06:44:24.435Z,17.50
2017-09-13T06:46:27.400Z,17.90
2017-09-13T06:48:30.099Z,18.20
2017-09-13T06:50:32.778Z,19.20
2017-09-13T06:52:35.533Z,18.40
2017-09-13T06:54:38.294Z,19.10
2017-09-13T06:56:40.991Z,18.70
2017-09-13T06:58:43.874Z,18.90
2017-09-13T07:00:46.674Z,19.90
2017-09-13T07:02:49.448Z,19.70
2017-09-13T07:04:52.156Z,19.40
2017-09-13T07:06:54.863Z,19.20
2017-09-13T07:08:57.505Z,19.30
2017-09-13T07:11:00.156Z,19.30
2017-09-13T07:13:02.949Z,19.70
2017-09-13T07:15:05.794Z,19.70
2017-09-13T07:17:08.579Z,18.60
2017-09-13T07:19:11.267Z,17.50
2017-09-13T07:21:13.975Z,17.00
2017-09-13T07:23:18.143Z,16.50
2017-09-13T07:25:20.990Z,16.50
2017-09-13T07:27:24.439Z,16.40
2017-09-13T07:29:27.184Z,16.40
2017-09-13T07:31:29.905Z,16.30
2017-09-13T07:33:34.491Z,16.20
2017-09-13T07:35:37.446Z,16.20
2017-09-13T07:37:40.267Z,16.10
2017-09-13T07:39:42.953Z,16.10
2017-09-13T07:41:45.623Z,16.00
2017-09-13T07:43:48.384Z,16.10
2017-09-13T07:45:52.089Z,16.30
2017-09-13T07:47:54.763Z,16.40
2017-09-13T07:49:57.565Z,16.30
2017-09-13T07:52:00.213Z,16.40
2017-09-13T07:54:02.893Z,16.60
2017-09-13T07:56:05.782Z,16.50
2017-09-13T07:58:08.457Z,16.40
2017-09-13T08:00:11.130Z,16.40
2017-09-13T08:02:13.817Z,17.60
2017-09-13T08:04:16.672Z,20.00
2017-09-13T08:06:19.474Z,21.10
2017-09-13T08:08:23.047Z,21.40
2017-09-13T08:10:25.845Z,21.40
2017-09-13T08:12:28.544Z,21.60
2017-09-13T08:14:31.189Z,22.00
2017-09-13T08:16:34.120Z,22.20
2017-09-13T08:18:36.817Z,21.70
2017-09-13T08:20:41.775Z,19.40
2017-09-13T08:22:44.467Z,19.30
2017-09-13T08:24:47.452Z,19.20
2017-09-13T08:26:50.280Z,19.00
2017-09-13T08:28:53.837Z,20.90
2017-09-13T08:30:56.699Z,20.90
2017-09-13T08:32:59.386Z,20.10
2017-09-13T08:35:02.351Z,20.50
2017-09-13T08:37:05.111Z,19.60
2017-09-13T08:39:07.779Z,20.10
2017-09-13T08:41:10.577Z,19.80
2017-09-13T08:43:13.394Z,20.70
2017-09-13T08:45:16.069Z,21.80
2017-09-13T08:47:18.779Z,20.60
2017-09-13T08:49:22.306Z,21.30
2017-09-13T08:51:24.979Z,21.30
2017-09-13T08:53:27.759Z,19.50
2017-09-13T08:55:30.546Z,19.20
2017-09-13T08:57:33.234Z,19.10
2017-09-13T08:59:36.745Z,19.50
2017-09-13T09:01:39.490Z,19.40
2017-09-13T09:03:42.201Z,20.50
2017-09-13T09:05:44.910Z,20.90
2017-09-13T09:07:48.746Z,21.40
2017-09-13T09:09:51.411Z,21.50
2017-09-13T09:11:54.093Z,20.50
2017-09-13T09:13:56.875Z,19.30
2017-09-13T09:15:59.548Z,19.60
2017-09-13T09:18:02.534Z,21.30
2017-09-13T09:20:05.211Z,22.80
2017-09-13T09:22:07.991Z,21.70
2017-09-13T09:24:10.734Z,21.80
2017-09-13T09:26:14.137Z,20.70
2017-09-13T09:28:17.659Z,19.60
2017-09-13T09:30:20.330Z,19.50
2017-09-13T09:32:22.973Z,19.10
2017-09-13T09:34:26.508Z,19.50
2017-09-13T09:36:29.202Z,19.40
2017-09-13T09:38:31.965Z,19.20
2017-09-13T09:40:34.650Z,20.10
2017-09-13T09:42:37.338Z,19.80
2017-09-13T09:44:40.088Z,20.40
2017-09-13T09:46:42.745Z,21.00
2017-09-13T09:48:46.394Z,21.70
2017-09-13T09:50:49.086Z,21.70
2017-09-13T09:52:51.740Z,22.10
2017-09-13T09:54:54.461Z,23.10
2017-09-13T09:56:57.126Z,23.60
2017-09-13T09:58:59.951Z,23.00
2017-09-13T10:01:02.936Z,23.60
2017-09-13T10:03:05.593Z,24.30
2017-09-13T10:05:08.418Z,22.40
2017-09-13T10:07:11.103Z,22.40
2017-09-13T10:09:13.753Z,22.00
2017-09-13T10:11:16.932Z,22.50
2017-09-13T10:13:19.611Z,23.10
2017-09-13T10:15:22.320Z,23.50
2017-09-13T10:17:24.983Z,24.10
2017-09-13T10:19:27.670Z,23.70
2017-09-13T10:21:30.381Z,20.90
2017-09-13T10:23:33.806Z,22.30
2017-09-13T10:25:36.539Z,22.30
2017-09-13T10:27:39.435Z,22.20
2017-09-13T10:29:42.854Z,22.30
2017-09-13T10:31:45.944Z,22.30
2017-09-13T10:33:48.599Z,23.10
2017-09-13T10:35:52.115Z,23.30
2017-09-13T10:37:55.924Z,23.20
2017-09-13T10:39:58.798Z,23.20
2017-09-13T10:42:01.667Z,22.00
2017-09-13T10:44:04.327Z,22.30
2017-09-13T10:46:07.744Z,22.40
2017-09-13T10:48:10.459Z,22.40
2017-09-13T10:50:13.203Z,20.20
2017-09-13T10:52:16.107Z,19.70
2017-09-13T10:54:18.781Z,19.40
2017-09-13T10:56:21.417Z,21.10
2017-09-13T10:58:24.084Z,22.40
2017-09-13T11:00:27.536Z,23.10
2017-09-13T11:02:30.329Z,23.10
2017-09-13T11:04:32.992Z,20.80
2017-09-13T11:06:35.666Z,20.00
2017-09-13T11:08:38.312Z,19.20
2017-09-13T11:10:41.204Z,19.20
2017-09-13T11:12:44.286Z,19.80
2017-09-13T11:14:46.955Z,20.70
2017-09-13T11:16:49.604Z,20.30
2017-09-13T11:18:53.140Z,18.90
2017-09-13T11:20:56.008Z,18.80
2017-09-13T11:22:59.040Z,19.40
2017-09-13T11:25:01.700Z,19.80
2017-09-13T11:27:04.350Z,20.10
2017-09-13T11:29:07.301Z,20.60
2017-09-13T11:31:10.712Z,20.20
2017-09-13T11:33:13.604Z,20.20
2017-09-13T11:35:16.300Z,20.40
2017-09-13T11:37:18.964Z,21.10
2017-09-13T11:39:21.610Z,20.60
2017-09-13T11:41:24.430Z,20.50
2017-09-13T11:43:27.189Z,21.00
2017-09-13T11:45:29.947Z,21.00
2017-09-13T11:47:32.637Z,21.00
2017-09-13T11:49:35.388Z,20.20
2017-09-13T11:51:38.816Z,20.30
2017-09-13T11:53:41.691Z,20.30
2017-09-13T11:55:44.519Z,20.60
2017-09-13T11:57:47.190Z,20.90
2017-09-13T11:59:50.116Z,20.50
2017-09-13T12:01:52.769Z,20.50
2017-09-13T12:03:56.236Z,21.00
2017-09-13T12:05:58.977Z,20.90
2017-09-13T12:08:01.626Z,21.30
2017-09-13T12:10:05.146Z,21.70
2017-09-13T12:12:07.816Z,21.70
2017-09-13T12:14:10.484Z,21.10
2017-09-13T12:16:13.279Z,20.70
2017-09-13T12:18:15.961Z,20.30
2017-09-13T12:20:18.665Z,20.00
2017-09-13T12:22:21.312Z,20.30
2017-09-13T12:24:24.001Z,20.50
2017-09-13T12:26:26.744Z,21.00
2017-09-13T12:28:30.171Z,21.60
2017-09-13T12:30:32.893Z,21.60
2017-09-13T12:32:35.545Z,20.80
2017-09-13T12:34:38.190Z,20.30
2017-09-13T12:36:40.972Z,20.20
2017-09-13T12:38:43.705Z,20.20
2017-09-13T12:40:47.238Z,21.00
2017-09-13T12:42:50.150Z,20.90
2017-09-13T12:44:52.897Z,21.20
2017-09-13T12:46:55.880Z,20.60
2017-09-13T12:48:58.795Z,20.00
2017-09-13T12:51:01.455Z,19.70
2017-09-13T12:53:04.297Z,20.10
2017-09-13T12:55:07.725Z,20.30
2017-09-13T12:57:10.504Z,20.30
2017-09-13T12:59:13.237Z,20.10
2017-09-13T13:01:16.691Z,20.00
2017-09-13T13:03:19.634Z,20.00
2017-09-13T13:05:22.272Z,19.60
2017-09-13T13:07:24.959Z,19.50
2017-09-13T13:09:28.395Z,19.80
2017-09-13T13:11:31.043Z,19.80
2017-09-13T13:13:34.545Z,20.10
2017-09-13T13:15:37.207Z,20.10
2017-09-13T13:17:40.793Z,20.30
2017-09-13T13:19:43.521Z,20.20
2017-09-13T13:21:46.174Z,20.10
2017-09-13T13:23:48.879Z,19.50
2017-09-13T13:25:51.576Z,19.40
2017-09-13T13:27:54.389Z,19.20
2017-09-13T13:29:57.869Z,19.00
2017-09-13T13:32:00.522Z,19.00
2017-09-13T13:34:03.338Z,19.10
2017-09-13T13:36:07.676Z,19.20
2017-09-13T13:38:14.886Z,19.20
2017-09-13T13:40:18.445Z,18.60
2017-09-13T13:42:21.159Z,18.60
2017-09-13T13:44:23.918Z,18.80
2017-09-13T13:46:26.584Z,19.00
2017-09-13T13:48:29.273Z,19.30
2017-09-13T13:50:31.967Z,19.90
2017-09-13T13:52:35.616Z,19.70
2017-09-13T13:54:38.425Z,19.50
2017-09-13T13:56:41.104Z,19.60
2017-09-13T13:58:43.779Z,19.30
2017-09-13T14:00:46.525Z,19.20
2017-09-13T14:02:49.941Z,18.40
2017-09-13T14:04:52.778Z,18.40
2017-09-13T14:06:55.609Z,18.20
2017-09-13T14:08:58.291Z,18.20
2017-09-13T14:11:01.028Z,18.30
2017-09-13T14:13:04.466Z,18.60
2017-09-13T14:15:07.136Z,18.60
2017-09-13T14:17:09.936Z,18.60
2017-09-13T14:19:12.635Z,18.60
2017-09-13T14:21:18.879Z,18.20
2017-09-13T14:23:21.628Z,18.20
2017-09-13T14:25:25.093Z,18.30
2017-09-13T14:27:28.496Z,18.30
2017-09-13T14:29:31.159Z,18.30
2017-09-13T14:31:34.623Z,18.20
2017-09-13T14:33:37.283Z,18.10
2017-09-13T14:35:41.072Z,18.00
2017-09-13T14:37:43.801Z,18.10
2017-09-13T14:39:47.245Z,18.10
2017-09-13T14:41:49.889Z,18.10
2017-09-13T14:43:53.410Z,17.90
2017-09-13T14:45:56.063Z,18.00
2017-09-13T14:47:58.722Z,18.10
2017-09-13T14:50:02.177Z,18.10
2017-09-13T14:52:04.929Z,18.10
2017-09-13T14:54:07.829Z,18.00
2017-09-13T14:56:10.506Z,18.00
2017-09-13T14:58:13.183Z,18.00
2017-09-13T15:00:15.973Z,18.00
2017-09-13T15:02:18.676Z,18.00
2017-09-13T15:04:21.506Z,17.80
2017-09-13T15:06:24.273Z,17.70
2017-09-13T15:08:26.967Z,17.90
2017-09-13T15:10:29.617Z,17.90
2017-09-13T15:12:33.230Z,17.60
2017-09-13T15:14:35.938Z,17.40
2017-09-13T15:16:38.980Z,17.20
2017-09-13T15:18:41.647Z,17.30
2017-09-13T15:20:44.409Z,17.20
2017-09-13T15:22:47.827Z,17.00
2017-09-13T15:24:50.518Z,17.00
2017-09-13T15:26:53.229Z,16.90
2017-09-13T15:28:55.966Z,16.90
2017-09-13T15:30:58.679Z,17.00
2017-09-13T15:33:01.374Z,17.20
2017-09-13T15:35:04.069Z,17.40
2017-09-13T15:37:07.589Z,17.80
2017-09-13T15:39:10.265Z,17.70
2017-09-13T15:41:13.045Z,18.00
2017-09-13T15:43:15.890Z,18.00
2017-09-13T15:45:19.347Z,17.60
2017-09-13T15:47:22.037Z,17.60
2017-09-13T15:49:24.774Z,17.60
2017-09-13T15:51:27.556Z,17.70
2017-09-13T15:53:30.227Z,17.80
2017-09-13T15:55:32.965Z,17.50
2017-09-13T15:57:36.555Z,17.40
2017-09-13T15:59:40.819Z,17.50
2017-09-13T16:01:43.699Z,17.50
2017-09-13T16:03:47.375Z,17.40
2017-09-13T16:05:50.943Z,17.10
2017-09-13T16:07:53.606Z,17.00
2017-09-13T16:09:56.349Z,17.00
2017-09-13T16:11:59.083Z,17.10
2017-09-13T16:14:02.528Z,17.00
2017-09-13T16:16:05.218Z,17.00
2017-09-13T16:18:07.915Z,17.00
2017-09-13T16:20:10.568Z,16.90
2017-09-13T16:22:13.326Z,16.80
2017-09-13T16:24:16.025Z,16.80
2017-09-13T16:26:18.890Z,16.50
2017-09-13T16:28:21.604Z,16.30
2017-09-13T16:30:24.289Z,16.20
2017-09-13T16:32:27.099Z,16.10
2017-09-13T16:34:29.782Z,16.10
2017-09-13T16:36:32.495Z,16.00
2017-09-13T16:38:35.347Z,16.00
2017-09-13T16:40:38.004Z,16.10
2017-09-13T16:42:41.606Z,15.90
2017-09-13T16:44:45.050Z,15.90
2017-09-13T16:46:48.030Z,15.80
2017-09-13T16:48:50.910Z,15.90
2017-09-13T16:50:53.579Z,15.90
2017-09-13T16:52:56.339Z,15.90
2017-09-13T16:54:59.011Z,15.80
2017-09-13T16:57:01.801Z,15.70
2017-09-13T16:59:04.518Z,15.60
2017-09-13T17:01:07.197Z,15.50
2017-09-13T17:03:10.722Z,15.50
2017-09-13T17:05:13.417Z,15.50
2017-09-13T17:07:16.198Z,15.40
2017-09-13T17:09:19.386Z,15.40
2017-09-13T17:11:22.045Z,15.30
2017-09-13T17:13:24.796Z,15.30
2017-09-13T17:15:27.446Z,15.20
2017-09-13T17:17:30.109Z,15.10
2017-09-13T17:19:32.899Z,15.10
2017-09-13T17:21:35.587Z,15.10
2017-09-13T17:23:38.251Z,15.00
2017-09-13T17:25:40.980Z,15.10
2017-09-13T17:27:43.766Z,15.00
2017-09-13T17:29:46.597Z,14.90
2017-09-13T17:31:49.278Z,14.90
2017-09-13T17:33:51.968Z,14.80
2017-09-13T17:35:55.712Z,14.60
2017-09-13T17:37:58.466Z,14.60
2017-09-13T17:40:02.087Z,14.60
2017-09-13T17:42:04.791Z,14.50
2017-09-13T17:44:07.487Z,14.60
2017-09-13T17:46:10.168Z,14.50
2017-09-13T17:48:12.884Z,14.50
2017-09-13T17:50:15.671Z,14.50
2017-09-13T17:52:18.372Z,14.40
2017-09-13T17:54:21.035Z,14.40
2017-09-13T17:56:23.846Z,14.30
2017-09-13T17:58:26.578Z,14.30
2017-09-13T18:00:29.291Z,14.30
2017-09-13T18:02:32.140Z,14.20
2017-09-13T18:04:34.916Z,14.10
2017-09-13T18:06:37.695Z,14.10
2017-09-13T18:08:40.419Z,14.10
2017-09-13T18:10:43.074Z,14.10
2017-09-13T18:12:45.834Z,13.90
2017-09-13T18:14:49.548Z,13.80
2017-09-13T18:16:52.197Z,13.70
2017-09-13T18:18:54.829Z,13.70
2017-09-13T18:20:58.622Z,13.70
2017-09-13T18:23:01.341Z,13.60
2017-09-13T18:25:03.997Z,13.60
2017-09-13T18:27:07.525Z,13.50
2017-09-13T18:29:10.166Z,13.50
2017-09-13T18:31:13.825Z,13.60
2017-09-13T18:33:16.621Z,13.60
2017-09-13T18:35:19.278Z,13.70
2017-09-13T18:37:21.941Z,13.60
2017-09-13T18:39:24.631Z,13.60
2017-09-13T18:41:27.420Z,13.60
2017-09-13T18:45:40.216Z,13.70
2017-09-13T18:47:43.046Z,13.70
2017-09-13T18:49:45.899Z,13.60
2017-09-13T18:51:48.588Z,13.60
2017-09-13T18:53:51.539Z,13.60
2017-09-13T18:55:54.205Z,13.60
2017-09-13T18:57:56.904Z,13.60
2017-09-13T18:59:59.693Z,13.50
2017-09-13T19:02:02.339Z,13.60
2017-09-13T19:04:05.123Z,13.70
2017-09-13T19:06:07.795Z,13.60
2017-09-13T19:08:10.468Z,13.60
2017-09-13T19:10:13.194Z,13.50
2017-09-13T19:12:16.085Z,13.60
2017-09-13T19:14:18.734Z,13.50
2017-09-13T19:16:21.451Z,13.50
2017-09-13T19:18:24.983Z,13.60
2017-09-13T19:20:27.740Z,13.50
2017-09-13T19:22:30.640Z,13.60
2017-09-13T19:24:33.306Z,13.60
2017-09-13T19:26:36.091Z,13.50
2017-09-13T19:28:38.792Z,13.50
2017-09-13T19:30:41.549Z,13.40
2017-09-13T19:32:44.369Z,13.40
2017-09-13T19:34:47.055Z,13.40
2017-09-13T19:36:49.887Z,13.30
2017-09-13T19:38:52.565Z,13.40
2017-09-13T19:40:55.515Z,13.40
2017-09-13T19:42:59.144Z,13.40
2017-09-13T19:45:01.819Z,13.40
2017-09-13T19:47:04.756Z,13.40
2017-09-13T19:49:07.421Z,13.40
2017-09-13T19:51:10.361Z,13.40
2017-09-13T19:53:13.217Z,13.40
2017-09-13T19:55:16.652Z,13.50
2017-09-13T19:57:19.523Z,13.50
2017-09-13T19:59:22.193Z,13.50
2017-09-13T20:01:24.864Z,13.50
2017-09-13T20:03:27.666Z,13.60
2017-09-13T20:05:30.427Z,13.60
2017-09-13T20:07:33.202Z,13.60
2017-09-13T20:09:35.844Z,13.60
2017-09-13T20:11:39.373Z,13.50
2017-09-13T20:13:42.855Z,13.50
2017-09-13T20:15:45.645Z,13.50
2017-09-13T20:17:48.360Z,13.60
2017-09-13T20:19:51.016Z,13.60
2017-09-13T20:21:53.684Z,13.70
2017-09-13T20:23:56.412Z,13.70
2017-09-13T20:25:59.068Z,13.70
2017-09-13T20:28:01.808Z,13.70
2017-09-13T20:30:04.513Z,13.70
2017-09-13T20:32:07.171Z,13.60
2017-09-13T20:34:10.168Z,13.50
2017-09-13T20:36:13.013Z,13.40
2017-09-13T20:38:15.671Z,13.50
2017-09-13T20:40:19.356Z,13.50
2017-09-13T20:42:22.044Z,13.50
2017-09-13T20:44:25.479Z,13.70
2017-09-13T20:46:28.281Z,13.70
2017-09-13T20:48:30.977Z,13.70
2017-09-13T20:50:33.658Z,13.80
2017-09-13T20:52:37.074Z,13.90
2017-09-13T20:54:40.588Z,13.90
2017-09-13T20:56:43.276Z,14.00
2017-09-13T20:58:45.976Z,14.00
2017-09-13T21:00:48.767Z,14.10
2017-09-13T21:02:51.424Z,14.10
2017-09-13T21:04:54.218Z,14.20
2017-09-13T21:06:57.631Z,14.30
2017-09-13T21:09:00.309Z,14.30
2017-09-13T21:11:03.720Z,14.30
2017-09-13T21:13:06.392Z,14.30
2017-09-13T21:15:10.115Z,14.20
2017-09-13T21:17:12.787Z,14.20
2017-09-13T21:19:15.437Z,14.20
2017-09-13T21:21:18.882Z,14.00
2017-09-13T21:23:21.552Z,14.00
2017-09-13T21:25:24.258Z,13.90
2017-09-13T21:27:27.076Z,13.80
2017-09-13T21:29:29.742Z,13.70
2017-09-13T21:31:33.183Z,13.60
2017-09-13T21:33:35.899Z,13.50
2017-09-13T21:35:39.477Z,13.50
2017-09-13T21:37:42.269Z,13.50
2017-09-13T21:39:44.994Z,13.40
2017-09-13T21:41:47.762Z,13.40
2017-09-13T21:43:50.451Z,13.30
2017-09-13T21:45:53.280Z,13.30
2017-09-13T21:47:56.041Z,13.20
2017-09-13T21:49:58.713Z,13.20
2017-09-13T21:52:01.517Z,13.20
2017-09-13T21:54:04.164Z,13.10
2017-09-13T21:56:07.017Z,13.00
2017-09-13T21:58:09.973Z,13.00
2017-09-13T22:00:13.497Z,12.90
2017-09-13T22:02:17.089Z,13.00
2017-09-13T22:04:19.828Z,12.90
2017-09-13T22:06:22.546Z,13.00
2017-09-13T22:08:25.256Z,12.90
2017-09-13T22:10:27.931Z,12.80
2017-09-13T22:12:30.748Z,12.70
2017-09-13T22:14:34.175Z,12.70
2017-09-13T22:16:36.955Z,12.60
2017-09-13T22:18:39.857Z,12.60
2017-09-13T22:20:42.512Z,12.50
2017-09-13T22:22:45.563Z,12.50
2017-09-13T22:24:48.981Z,12.40
2017-09-13T22:26:51.868Z,12.40
2017-09-13T22:33:11.408Z,12.40
2017-09-13T22:37:22.352Z,12.40
2017-09-13T22:39:25.740Z,12.50
2017-09-13T22:41:28.417Z,12.50
2017-09-13T22:43:31.075Z,12.50
2017-09-13T22:45:34.492Z,12.40
2017-09-13T22:47:37.575Z,12.30
2017-09-13T22:49:40.235Z,12.40
2017-09-13T22:51:42.919Z,12.30
2017-09-13T22:53:46.339Z,12.30
2017-09-13T22:55:48.984Z,12.30
2017-09-13T22:57:51.955Z,12.30
2017-09-13T22:59:55.386Z,12.20
2017-09-13T23:02:09.313Z,12.10
2017-09-13T23:04:11.957Z,12.10
2017-09-13T23:06:14.617Z,12.10
2017-09-13T23:14:42.819Z,12.20
2017-09-13T23:16:45.458Z,12.40
2017-09-13T23:18:48.096Z,12.40
2017-09-13T23:20:51.603Z,12.40
2017-09-13T23:22:55.027Z,12.40
2017-09-13T23:24:57.827Z,12.40
2017-09-13T23:27:00.488Z,12.30
2017-09-13T23:29:03.251Z,12.40
2017-09-13T23:31:06.935Z,12.30
2017-09-13T23:33:11.607Z,12.30
2017-09-13T23:35:14.386Z,12.30
2017-09-13T23:37:17.088Z,12.30
2017-09-13T23:39:19.791Z,12.30
2017-09-13T23:41:22.501Z,12.40
2017-09-13T23:43:25.182Z,12.50
2017-09-13T23:45:27.867Z,12.50
2017-09-13T23:47:30.530Z,12.60
2017-09-13T23:49:33.285Z,12.60
2017-09-13T23:51:35.951Z,12.50
2017-09-13T23:53:38.641Z,12.50
2017-09-13T23:55:41.460Z,12.50
2017-09-13T23:57:44.109Z,12.60
2017-09-13T23:59:46.761Z,12.60
